»·PEaware :: N106KF KPHX-KTUS

N106KF :: KPHX-KTUS

FLIGHT INFORMATION

Flight Status: Arrived
Operator: Privately registered:
United States
More flights under this callsign
Pilot: Spencer F. (32151)
Aircraft: CIRRUS SR-22
(SR22)
More flights by this aircraft type
Origin: KPHX Phoenix Sky Harbor Intl
United States
Destination: KTUS Tucson Intl
United States
More flights between these airports :: More routes between these airports
Route: PXR V105 TUS
File this flight plan on PilotEdge
Remarks:
Altitude:
(Current/Filed)
11,000ft
Speed:
(Current/Filed)
170kts
Departed: 16-Nov-20 03:01 PM
Arrived: 16-Nov-20 03:40 PM
Distance/Time
Traveled:
95nm/0:39
Distance/Time
To Go:
Arrived

Flight Plot

Page will automatically refresh every two minutes.

Flight plan parsing failed; only flown route is shown


Map Options




Map Legend


Flown Route
Filed Route
Departure Airport
Arrival Airport
Navaid (VOR, NDB)
Fix

Horizontal Profiles

Position Reports

Time Latitude Longitude Heading Altitude Ground
Speed
16-Nov-20 14:41 33.442712 -112.025021 358 1113ft 0kts
16-Nov-20 14:42 33.442712 -112.025021 358 1113ft 0kts
16-Nov-20 14:43 33.442712 -112.025021 358 1113ft 0kts
16-Nov-20 14:44 33.442712 -112.025021 358 1113ft 0kts
16-Nov-20 14:45 33.442712 -112.025021 358 1113ft 0kts
16-Nov-20 14:46 33.442712 -112.025021 358 1113ft 0kts
16-Nov-20 14:47 33.442712 -112.025021 358 1113ft 0kts
16-Nov-20 14:48 33.442712 -112.025021 358 1113ft 0kts
16-Nov-20 14:49 33.442712 -112.025021 358 1113ft 0kts
16-Nov-20 14:50 33.442712 -112.025021 358 1113ft 0kts
16-Nov-20 14:51 33.442713 -112.025021 357 1113ft 0kts
16-Nov-20 14:52 33.442713 -112.025021 357 1113ft 0kts
16-Nov-20 14:53 33.442713 -112.025021 357 1113ft 0kts
16-Nov-20 14:54 33.442713 -112.025021 357 1113ft 0kts
16-Nov-20 14:55 33.442713 -112.025021 357 1113ft 0kts
16-Nov-20 14:56 33.442582 -112.025284 196 1113ft 10kts
16-Nov-20 14:57 33.441796 -112.029562 219 1110ft 6kts
16-Nov-20 14:58 33.441779 -112.029577 215 1110ft 0kts
16-Nov-20 14:59 33.440979 -112.029355 110 1110ft 16kts
16-Nov-20 15:00 33.440484 -111.999635 88 1961ft 130kts
16-Nov-20 15:01 33.426226 -111.967518 139 3631ft 120kts
16-Nov-20 15:02 33.401197 -111.943551 139 5090ft 130kts
16-Nov-20 15:03 33.368693 -111.912561 139 5144ft 173kts
16-Nov-20 15:04 33.332813 -111.906870 204 6042ft 156kts
16-Nov-20 15:05 33.292363 -111.928969 203 6912ft 141kts
16-Nov-20 15:06 33.254292 -111.937642 181 8166ft 142kts
16-Nov-20 15:07 33.214596 -111.940053 180 9551ft 145kts
16-Nov-20 15:08 33.173762 -111.940473 172 10863ft 149kts
16-Nov-20 15:09 33.127976 -111.935687 171 11053ft 172kts
16-Nov-20 15:10 33.079877 -111.930379 172 11019ft 174kts
16-Nov-20 15:11 33.031717 -111.924996 172 11022ft 173kts
16-Nov-20 15:12 32.981734 -111.919383 172 11025ft 189kts
16-Nov-20 15:13 32.928593 -111.913468 173 11026ft 193kts
16-Nov-20 15:14 32.877364 -111.899912 148 11027ft 187kts
16-Nov-20 15:15 32.834531 -111.865990 145 11027ft 184kts
16-Nov-20 15:16 32.792426 -111.831258 144 11027ft 184kts
16-Nov-20 15:17 32.750495 -111.796582 144 11027ft 184kts
16-Nov-20 15:18 32.708566 -111.761937 144 11027ft 184kts
16-Nov-20 15:19 32.666576 -111.727280 144 11027ft 184kts
16-Nov-20 15:20 32.624618 -111.692690 144 11026ft 184kts
16-Nov-20 15:21 32.582620 -111.658109 144 11022ft 184kts
16-Nov-20 15:22 32.548004 -111.629636 144 11018ft 184kts
16-Nov-20 15:23 32.505684 -111.594868 144 10955ft 187kts
16-Nov-20 15:24 32.463310 -111.560093 144 10944ft 185kts
16-Nov-20 15:25 32.421017 -111.525421 144 10944ft 185kts
16-Nov-20 15:26 32.381306 -111.487492 124 10945ft 184kts
16-Nov-20 15:27 32.354380 -111.435522 120 10944ft 185kts
16-Nov-20 15:28 32.329900 -111.382251 109 10859ft 190kts
16-Nov-20 15:29 32.314955 -111.331242 109 9829ft 139kts
16-Nov-20 15:30 32.301634 -111.286709 109 8840ft 155kts
16-Nov-20 15:31 32.286722 -111.238214 109 7842ft 157kts
16-Nov-20 15:32 32.271192 -111.188695 109 6590ft 166kts
16-Nov-20 15:33 32.255979 -111.141041 109 5963ft 140kts
16-Nov-20 15:34 32.241740 -111.096232 109 5904ft 151kts
16-Nov-20 15:35 32.214547 -111.054789 135 5126ft 170kts
16-Nov-20 15:36 32.183890 -111.019070 134 4290ft 149kts
16-Nov-20 15:37 32.155223 -110.985352 134 3494ft 143kts
16-Nov-20 15:38 32.134816 -110.961356 134 2936ft 93kts
16-Nov-20 15:39 32.121806 -110.944860 52 2583ft 13kts
16-Nov-20 15:40 32.121872 -110.944576 55 2584ft 0kts
16-Nov-20 15:41 32.125028 -110.946898 359 2573ft 18kts
16-Nov-20 15:42 32.126270 -110.945039 124 2572ft 0kts

Navigation Log

Ident Type
Flight plan parsing failed, navigation log unavailable